• Join FlightAware (Why Join?)
  • Login
  • US Flag 
08:44PM EDT


 

Airport Tracker/Info


-or-


 

Live Flight TrackerFlight Track Log ✈ DAL6034 ✈ 04-Sep-2014 ✈ KIND - KDTW

Flight Track Log - Related Links

Times and Time Zones

All times are in EDT time to prevent confusion due to time zone crossing. See the DAL6034 flight status page for this flight to view local times or setup timezone preferences in your user account.

Time Position Orientation Groundspeed Altitude Reporting Facility
EDT Latitude Longitude Course Direction KTS MPH feet Rate Location/Type
01:50PM 39.7000 -86.3000 12° North 156 180 1,400  Level Indianapolis TRACON
01:50PM 39.7000 -86.3167 224° Southwest 159 183 1,800 1,860 Climbing Indianapolis TRACON
01:51PM 39.6833 -86.3667 247° West 194 223 3,700 1,560 Climbing Indianapolis TRACON
01:52PM 39.7350 -86.3644 North 210 242 4,900 1,680 Climbing Indianapolis Center
01:53PM 39.8075 -86.3414 14° North 249 287 7,100 2,100 Climbing Indianapolis Center
01:54PM 40.1081 -85.8540 27° Northeast  Level Estimated
01:54PM 39.8817 -86.3183 13° North 266 306 9,300  Level Indianapolis Center
01:55PM 40.3135 -86.1485 12° North  Level FlightAware Approximate
01:55PM 39.9533 -86.2650 30° Northeast 297 342 10,500  Level Indianapolis Center
01:56PM 40.0261 -86.1933 37° Northeast 322 371 11,900 1,140 Climbing Indianapolis Center
01:57PM 40.1206 -86.0967 38° Northeast 351 404 12,900 600 Climbing Indianapolis Center
01:58PM 40.1875 -86.0256 39° Northeast 377 434 13,200 1,260 Climbing Chicago Center
01:59PM 40.2831 -85.9272 38° Northeast 366 421 15,500 1,800 Climbing Chicago Center
02:00PM 40.3561 -85.8486 39° Northeast 346 398 17,000 1,380 Climbing Chicago Center
02:01PM 40.4322 -85.7692 38° Northeast 350 403 18,400 1,200 Climbing Chicago Center
02:02PM 40.5094 -85.6878 39° Northeast 353 406 19,600 840 Climbing Chicago Center
02:03PM 40.5925 -85.6022 38° Northeast 375 432 20,200 540 Climbing Chicago Center
02:04PM 40.6867 -85.5006 39° Northeast 400 460 20,800 240 Climbing Chicago Center
02:06PM 40.8742 -85.3000 39° Northeast 441 507 21,000 60 Climbing Cleveland Center
02:07PM 40.9733 -85.1950 39° Northeast 454 522 21,000  Level Cleveland Center
02:08PM 41.0711 -85.0883 39° Northeast 457 526 21,000  Level Cleveland Center
02:09PM 41.1689 -84.9856 38° Northeast 457 526 21,000  Level Cleveland Center
02:10PM 41.2850 -84.8597 39° Northeast 455 524 21,000  Level Cleveland Center
02:11PM 41.3819 -84.7553 39° Northeast 455 524 21,000 -180 Level Cleveland Center
02:12PM 41.4794 -84.6500 39° Northeast 455 524 20,700 -1,260 Descending Cleveland Center
02:13PM 41.5747 -84.5461 39° Northeast 448 516 18,400 -2,340 Descending Cleveland Center
02:14PM 41.6642 -84.4461 40° Northeast 428 493 15,900 -2,700 Descending Cleveland Center
02:15PM 41.7314 -84.2847 61° Northeast 417 480 12,900 -1,920 Descending Cleveland Center
02:16PM 41.7808 -84.1558 63° Northeast 401 461 12,000 -660 Descending Cleveland Center
02:17PM 41.8000 -84.1031 64° Northeast 400 460 12,000  Level Cleveland Center
02:17PM 41.8331 -84.0269 60° Northeast 399 459 12,000  Level Cleveland Center
02:18PM 41.8631 -83.9781 51° Northeast 389 448 12,000  Level Cleveland Center
02:18PM 41.8994 -83.9131 53° Northeast 390 449 12,000  Level Cleveland Center
02:19PM 41.9244 -83.8722 51° Northeast 393 452 12,000  Level Cleveland Center
02:19PM 41.9661 -83.7967 53° Northeast 391 450 12,000 60 Level Cleveland Center
02:20PM 41.9928 -83.7558 49° Northeast 396 456 12,100  Climbing Cleveland Center
02:20PM 42.0667 -83.6861 35° Northeast 395 455 12,000 -120 Descending Cleveland Center
02:21PM 42.0811 -83.6731 34° Northeast 374 430 12,000  Level Cleveland Center
02:22PM 42.1389 -83.6150 37° Northeast 330 380 12,000  Level Cleveland Center
02:23PM 42.1922 -83.5622 36° Northeast 264 304 12,000 -480 Level Cleveland Center
02:24PM 42.2631 -83.5075 30° Northeast 248 285 11,100 -1,260 Descending Cleveland Center
02:25PM 42.3219 -83.4683 26° Northeast 242 278 9,500 -1,680 Descending Cleveland Center
02:25PM 42.3350 -83.4589 28° Northeast 237 273 9,000 -1,800 Descending Cleveland Center
02:26PM 42.3814 -83.4250 28° Northeast 242 278 7,700 -1,800 Descending Cleveland Center
02:26PM 42.3931 -83.4161 29° Northeast 236 272 7,200 -1,380 Descending Cleveland Center
02:27PM 42.4336 -83.3844 30° Northeast 234 269 6,300 -1,380 Descending Cleveland Center
02:27PM 42.4533 -83.3681 32° Northeast 230 265 5,800 -1,380 Descending Cleveland Center
02:28PM 42.4906 -83.3406 29° Northeast 235 270 4,900 -840 Descending Cleveland Center
02:29PM 42.4900 -83.2431 90° East 207 238 4,200 -480 Descending Cleveland Center
02:30PM 42.4606 -83.2172 147° Southeast 197 227 4,000 -120 Descending Cleveland Center
02:31PM 42.4158 -83.2250 187° South 166 191 4,000  Level Cleveland Center
02:31PM 42.4028 -83.2367 213° Southwest 162 186 4,000 -120 Level Cleveland Center
02:32PM 42.3769 -83.2553 208° Southwest 160 184 3,900 -300 Descending Cleveland Center
02:32PM 42.3628 -83.2650 207° Southwest 161 185 3,700 -780 Descending Cleveland Center
02:33PM 42.3375 -83.2839 209° Southwest 160 184 3,100 -840 Descending Cleveland Center
02:34PM 42.2961 -83.3156 210° Southwest 162 186 2,200 -840 Descending Cleveland Center
02:35PM 42.2589 -83.3417 207° Southwest 158 182 1,400 -600 Descending Cleveland Center
02:36PM 42.2197 -83.3714 209° Southwest 148 170 1,000 -420 Descending Cleveland Center